• Join FlightAware (Why Join?)
  • Login
  • US Flag 
10:23PM EDT


 

Airport Tracker/Info


-or-


 

Live Flight TrackerFlight Track Log ✈ AWE2791 ✈ 18-Oct-2013 ✈ KCLT - KDSM

Flight Track Log - Related Links

Times and Time Zones

All times are in EDT time to prevent confusion due to time zone crossing. See the AWE2791 flight status page for this flight to view local times or setup timezone preferences in your user account.

Time Position Orientation Groundspeed Altitude Reporting Facility
EDT Latitude Longitude Course Direction KTS MPH feet Rate Location/Type
11:39AM 35.2861 -81.0797 288° West 270 311 6,500  Level Atlanta Center
11:41AM 35.2270 -81.3093 242° Southwest  Level FlightAware Approximate
11:42AM 35.2372 -80.9594 242° Southwest 171 197 1,700  Level Atlanta Center
11:43AM 35.2908 -81.0158 319° Northwest 255 293 3,300 2,220 Climbing Atlanta Center
11:44AM 35.2847 -81.1025 265° West 262 302 6,700 2,280 Climbing Atlanta Center
11:45AM 35.2761 -81.1844 263° West 250 288 8,000 660 Climbing Atlanta Center
11:46AM 35.2572 -81.2639 254° West 263 303 8,000 780 Level Atlanta Center
11:47AM 35.2194 -81.3489 241° Southwest 260 299 9,600 1,620 Climbing Atlanta Center
11:48AM 35.1675 -81.4600 240° Southwest 300 345 11,800 1,680 Climbing Atlanta Center
11:49AM 35.1444 -81.5572 254° West 300 345 13,600 1,860 Climbing Atlanta Center
11:50AM 35.1383 -81.6717 266° West 318 366 15,600 1,980 Climbing Atlanta Center
11:51AM 35.1300 -81.7786 265° West 324 373 17,600 1,860 Climbing Atlanta Center
11:52AM 35.1194 -81.8906 263° West 339 390 19,400 1,740 Climbing Atlanta Center
11:53AM 35.1089 -82.0075 264° West 344 396 21,100 1,560 Climbing Atlanta Center
11:54AM 35.1003 -82.1247 265° West 349 402 22,600 900 Climbing Atlanta Center
11:55AM 35.0936 -82.2289 266° West 349 402 23,000 780 Climbing Atlanta Center
11:57AM 35.1344 -82.4592 282° West 354 407 25,000 960 Climbing Atlanta Center
11:58AM 35.1983 -82.5747 304° West 371 427 26,000 480 Climbing Atlanta Center
11:59AM 35.2517 -82.6858 300° West 376 433 26,000 360 Level Atlanta Center
12:00PM 35.3158 -82.8169 301° West 414 476 26,800 1,380 Climbing Atlanta Center
12:01PM 35.3836 -82.9433 303° West 422 486 28,800 1,800 Climbing Atlanta Center
12:02PM 35.4431 -83.0572 303° West 416 479 30,400 1,260 Climbing Atlanta Center
12:03PM 35.5003 -83.1714 302° West 403 464 31,400 960 Climbing Atlanta Center
12:04PM 35.5594 -83.2806 304° West 391 450 32,400 960 Climbing Atlanta Center
12:05PM 35.6144 -83.3925 301° West 385 443 33,400 780 Climbing Atlanta Center
12:06PM 35.6692 -83.4994 302° West 380 437 34,000 300 Climbing Atlanta Center
12:07PM 35.7258 -83.6142 301° West 386 444 34,000  Level Atlanta Center
12:08PM 35.7847 -83.7289 302° West 392 451 34,000  Level Atlanta Center
12:09PM 35.8453 -83.8467 302° West 403 464 34,000  Level Atlanta Center
12:10PM 35.9039 -83.9644 302° West 403 464 34,000  Level Atlanta Center
12:11PM 35.9603 -84.0797 301° West 403 464 34,000  Level Atlanta Center
12:13PM 36.0578 -84.2733 302° West 380 437 34,000  Level Indianapolis Center
12:14PM 36.1122 -84.3833 302° West 377 434 34,000 240 Level Indianapolis Center
12:15PM 36.1664 -84.4944 301° West 379 436 34,500 660 Climbing Indianapolis Center
12:16PM 36.2217 -84.6042 302° West 378 435 35,400 720 Climbing Indianapolis Center
12:17PM 36.2842 -84.7342 301° West 370 426 36,000 240 Climbing Indianapolis Center
12:18PM 36.3386 -84.8442 302° West 376 433 36,000  Level Indianapolis Center
12:19PM 36.3931 -84.9564 301° West 381 438 36,000  Level Indianapolis Center
12:20PM 36.4467 -85.0683 301° West 379 436 36,000  Level Indianapolis Center
12:21PM 36.5006 -85.1781 301° West 374 430 36,000  Level Indianapolis Center
12:22PM 36.5631 -85.3089 301° West 369 425 36,000  Level Indianapolis Center
12:23PM 36.6144 -85.4169 301° West 365 420 36,000  Level Indianapolis Center
12:24PM 36.6664 -85.5272 300° West 369 425 36,000  Level Indianapolis Center
12:25PM 36.7178 -85.6356 301° West 365 420 36,000  Level Indianapolis Center
12:26PM 36.7753 -85.7553 301° West 367 422 36,000  Level Indianapolis Center
12:27PM 36.8272 -85.8650 301° West 367 422 36,000  Level Indianapolis Center
12:28PM 36.8800 -85.9747 301° West 365 420 36,000  Level Indianapolis Center
12:29PM 36.9319 -86.0858 300° West 367 422 36,000  Level Indianapolis Center
12:30PM 36.9831 -86.1958 300° West 365 420 36,000  Level Indianapolis Center
12:31PM 37.0353 -86.3067 301° West 368 423 36,000  Level Indianapolis Center
12:32PM 37.0958 -86.4367 300° West 369 425 36,000  Level Indianapolis Center
12:33PM 37.1478 -86.5492 300° West 372 428 36,000  Level Indianapolis Center
12:35PM 37.2003 -86.6614 300° West 372 428 36,000  Level Indianapolis Center
12:36PM 37.2525 -86.7761 300° West 376 433 36,000  Level Indianapolis Center
12:37PM 37.3056 -86.8917 300° West 379 436 36,000  Level Indianapolis Center
12:38PM 37.3575 -87.0058 300° West 376 433 36,000  Level Indianapolis Center
12:39PM 37.4200 -87.1411 300° West 381 438 36,000  Level Indianapolis Center
12:40PM 37.4714 -87.2556 300° West 376 433 36,000  Level Indianapolis Center
12:41PM 37.5244 -87.3722 300° West 380 437 36,000  Level Indianapolis Center
12:42PM 37.5767 -87.4922 299° West 385 443 36,000  Level Indianapolis Center
12:43PM 37.6292 -87.6086 300° West 380 437 36,000  Level Indianapolis Center
12:44PM 37.6819 -87.7250 300° West 380 437 36,000  Level Indianapolis Center
12:45PM 37.7339 -87.8417 299° West 379 436 36,000  Level Indianapolis Center
12:46PM 37.7894 -87.9681 299° West 378 435 36,000  Level Indianapolis Center
12:47PM 37.8419 -88.0844 300° West 378 435 36,000  Level Indianapolis Center
12:48PM 37.8928 -88.2008 299° West 377 434 36,000  Level Indianapolis Center
12:49PM 37.9436 -88.3172 299° West 377 434 36,000  Level Indianapolis Center
12:50PM 38.0050 -88.4594 299° West 380 437 36,000  Level Indianapolis Center
12:51PM 38.0572 -88.5772 299° West 381 438 36,000  Level Indianapolis Center
12:52PM 38.1072 -88.6950 298° West 379 436 36,000  Level Indianapolis Center
12:53PM 38.1583 -88.8142 299° West 382 440 36,000  Level Indianapolis Center
12:54PM 38.2189 -88.9483 300° West 383 441 36,000  Level Kansas City Center
12:55PM 38.2683 -89.0692 298° West 385 443 36,000  Level Kansas City Center
12:56PM 38.3192 -89.1883 299° West 385 443 36,000  Level Kansas City Center
12:57PM 38.3806 -89.3328 298° West 387 445 36,000  Level Kansas City Center
12:58PM 38.4322 -89.4539 299° West 388 447 36,000  Level Kansas City Center
12:59PM 38.4878 -89.5847 299° West 390 449 36,000  Level Kansas City Center
01:01PM 38.5358 -89.6961 299° West 390 449 36,000  Level Kansas City Center
01:02PM 38.5878 -89.8194 298° West 394 453 36,000  Level Kansas City Center
01:03PM 38.6392 -89.9431 298° West 395 455 36,000  Level Kansas City Center
01:04PM 38.7011 -90.0911 298° West 397 457 36,000  Level Kansas City Center
01:05PM 38.7525 -90.2167 298° West 398 458 36,000  Level Kansas City Center
01:06PM 38.8072 -90.3458 299° West 403 464 36,000  Level Kansas City Center
01:07PM 38.8611 -90.4717 299° West 405 466 36,000  Level Kansas City Center
01:08PM 38.9547 -90.5917 315° West 419 482 36,000  Level Kansas City Center
01:09PM 39.0406 -90.6925 318° Northwest 420 483 36,000  Level Kansas City Center
01:10PM 39.1256 -90.7914 318° Northwest 417 480 36,000  Level Kansas City Center
01:11PM 39.2100 -90.8906 318° Northwest 414 476 36,000  Level Kansas City Center
01:12PM 39.2931 -90.9914 317° Northwest 412 474 36,000  Level Kansas City Center
01:13PM 39.3769 -91.0914 317° Northwest 411 473 36,000  Level Kansas City Center
01:14PM 39.4803 -91.2133 318° Northwest 418 481 36,000  Level Kansas City Center
01:15PM 39.5658 -91.3164 317° Northwest 421 484 36,000  Level Kansas City Center
01:16PM 39.6531 -91.4211 317° Northwest 423 487 36,000  Level Kansas City Center
01:17PM 39.7386 -91.5244 317° Northwest 424 488 36,000  Level Kansas City Center
01:18PM 39.8247 -91.6286 317° Northwest 425 489 36,000  Level Kansas City Center
01:19PM 39.9286 -91.7558 317° Northwest 427 491 36,000 -60 Level Kansas City Center
01:20PM 40.0164 -91.8611 317° Northwest 430 495 35,900 -960 Descending Kansas City Center
01:21PM 40.1036 -91.9678 317° Northwest 432 497 34,000 -1,920 Descending Kansas City Center
01:22PM 40.1894 -92.0717 317° Northwest 430 495 31,900 -1,980 Descending Kansas City Center
01:23PM 40.2706 -92.1711 317° Northwest 414 476 30,000 -1,980 Descending Kansas City Center
01:24PM 40.3611 -92.2833 317° Northwest 389 448 27,900 -1,740 Descending Kansas City Center
01:25PM 40.4300 -92.3694 316° Northwest 378 435 26,500 -1,500 Descending Kansas City Center
01:26PM 40.5075 -92.4672 316° Northwest 382 440 24,800 -1,260 Descending Kansas City Center
01:27PM 40.6056 -92.5889 317° Northwest 397 457 24,000 -540 Descending Kansas City Center
01:28PM 40.6383 -92.6311 316° Northwest 402 463 24,000  Level Chicago Center
01:29PM 40.7347 -92.7489 317° Northwest 398 458 24,000 -1,020 Level Chicago Center
01:30PM 40.8186 -92.8489 318° Northwest 405 466 22,000 -2,220 Descending Chicago Center
01:31PM 40.9097 -92.9419 322° Northwest 416 479 19,500 -2,400 Descending Chicago Center
01:32PM 40.9933 -93.0289 322° Northwest 389 448 17,100 -2,460 Descending Chicago Center
01:33PM 41.0681 -93.1153 319° Northwest 364 419 14,500 -2,640 Descending Chicago Center
01:34PM 41.1406 -93.1931 321° Northwest 343 395 11,800 -2,100 Descending Minneapolis Center
01:35PM 41.2183 -93.2856 318° Northwest 320 368 10,300 -1,500 Descending Minneapolis Center
01:36PM 41.2753 -93.3328 328° Northwest 228 262 8,900 -1,500 Descending Minneapolis Center
01:36PM 41.2747 -93.3439 266° West 244 281 8,800 -1,680 Descending Minneapolis Center
01:37PM 41.3242 -93.3894 325° Northwest 235 270 7,200 -1,680 Descending Minneapolis Center
01:37PM 41.3233 -93.4011 265° West 235 270 7,100 -1,500 Descending Minneapolis Center
01:38PM 41.3731 -93.4436 327° Northwest 225 259 5,700 -1,500 Descending Minneapolis Center
01:38PM 41.3736 -93.4592 273° West 225 259 5,600 -1,200 Descending Minneapolis Center
01:39PM 41.4175 -93.4922 331° Northwest 208 239 4,500 -1,260 Descending Minneapolis Center
01:39PM 41.4186 -93.5094 275° West 213 245 4,300 -1,440 Descending Minneapolis Center
01:40PM 41.4675 -93.5639 320° Northwest 214 246 2,800 -1,320 Descending Minneapolis Center
01:41PM 41.5044 -93.5953 328° Northwest 180 207 1,900 -1,020 Descending Minneapolis Center
01:41PM 41.5028 -93.6119 262° West 184 212 1,800 -660 Descending Minneapolis Center
01:42PM 41.5286 -93.6483 313° West 141 162 1,100 -480 Descending Minneapolis Center
01:43PM 41.5392 -93.6606 319° Northwest 42 48 900 -120 Descending Minneapolis Center
01:44PM 41.5364 -93.6594 163° South 23 26 900  Level Minneapolis Center